createdAt,value
2022-09-23T00:00:25.032Z,100644.91
2022-09-23T00:02:57.610Z,100639.66
2022-09-23T00:05:27.234Z,100636.16
2022-09-23T00:07:57.849Z,100644.09
2022-09-23T00:10:28.785Z,100642.34
2022-09-23T00:13:01.204Z,100646.72
2022-09-23T00:15:31.366Z,100642.31
2022-09-23T00:18:00.986Z,100635.19
2022-09-23T00:20:32.119Z,100642.09
2022-09-23T00:23:01.686Z,100633.22
2022-09-23T00:25:32.056Z,100631.31
2022-09-23T00:28:04.729Z,100635.63
2022-09-23T00:30:34.328Z,100636.50
2022-09-23T00:33:03.927Z,100626.78
2022-09-23T00:35:33.457Z,100627.66
2022-09-23T00:38:02.996Z,100625.94
2022-09-23T00:40:32.735Z,100625.13
2022-09-23T00:43:05.040Z,100621.69
2022-09-23T00:45:35.129Z,100627.88
2022-09-23T00:48:05.949Z,100621.75
2022-09-23T00:50:37.792Z,100623.50
2022-09-23T00:53:10.153Z,100621.75
2022-09-23T00:55:43.079Z,100619.13
2022-09-23T00:58:18.553Z,100613.84
2022-09-23T01:00:48.379Z,100617.31
2022-09-23T01:03:19.676Z,100611.97
2022-09-23T01:05:49.750Z,100614.59
2022-09-23T01:08:19.620Z,100614.59
2022-09-23T01:10:55.280Z,100609.25
2022-09-23T01:13:32.163Z,100614.53
2022-09-23T01:16:08.872Z,100611.09
2022-09-23T01:18:44.235Z,100611.09
2022-09-23T01:21:21.684Z,100605.00
2022-09-23T01:24:11.269Z,100597.97
2022-09-23T01:26:56.669Z,100605.13
2022-09-23T01:29:54.878Z,100603.44
2022-09-23T01:32:37.234Z,100595.69
2022-09-23T01:35:10.456Z,100597.56
2022-09-23T01:37:44.408Z,100596.69
2022-09-23T01:40:19.525Z,100596.69
2022-09-23T01:42:53.004Z,100591.50
2022-09-23T01:45:27.278Z,100589.84
2022-09-23T01:48:00.180Z,100590.00
2022-09-23T01:50:57.847Z,100585.78
2022-09-23T01:53:33.036Z,100590.22
2022-09-23T01:56:06.093Z,100590.09
2022-09-23T01:58:39.971Z,100587.25
2022-09-23T02:01:10.770Z,100582.59
2022-09-23T02:03:45.925Z,100586.88
2022-09-23T02:06:17.897Z,100587.81
2022-09-23T02:08:51.092Z,100588.66
2022-09-23T02:11:22.128Z,100583.25
2022-09-23T02:13:55.960Z,100580.50
2022-09-23T02:16:29.857Z,100582.19
2022-09-23T02:19:05.249Z,100584.75
2022-09-23T02:21:37.945Z,100578.50
2022-09-23T02:24:13.041Z,100570.66
2022-09-23T02:26:48.682Z,100568.00
2022-09-23T02:29:23.673Z,100572.31
2022-09-23T02:31:59.098Z,100569.63
2022-09-23T02:34:43.679Z,100561.75
2022-09-23T02:37:14.617Z,100559.09
2022-09-23T02:39:53.807Z,100556.47
2022-09-23T02:42:24.997Z,100562.66
2022-09-23T02:44:54.525Z,100550.31
2022-09-23T02:47:26.977Z,100545.78
2022-09-23T02:49:59.080Z,100543.97
2022-09-23T02:52:28.772Z,100539.53
2022-09-23T02:54:58.896Z,100545.50
2022-09-23T02:57:28.459Z,100541.97
2022-09-23T02:59:58.478Z,100532.19
2022-09-23T03:02:43.605Z,100531.25
2022-09-23T03:05:23.928Z,100524.19
2022-09-23T03:08:09.782Z,100524.19
2022-09-23T03:10:45.927Z,100523.22
2022-09-23T03:13:19.830Z,100525.84
2022-09-23T03:15:53.376Z,100528.50
2022-09-23T03:18:31.651Z,100526.81
2022-09-23T03:21:06.902Z,100521.50
2022-09-23T03:23:38.488Z,100526.81
2022-09-23T03:26:11.912Z,100523.34
2022-09-23T03:28:44.038Z,100523.41
2022-09-23T03:31:14.475Z,100518.16
2022-09-23T03:33:48.039Z,100523.56
2022-09-23T03:36:37.935Z,100518.38
2022-09-23T03:39:11.414Z,100524.69
2022-09-23T03:41:44.724Z,100525.66
2022-09-23T03:44:14.866Z,100523.19
2022-09-23T03:46:49.700Z,100519.78
2022-09-23T03:49:20.846Z,100519.97
2022-09-23T03:51:53.025Z,100527.13
2022-09-23T03:54:23.244Z,100525.44
2022-09-23T03:56:52.960Z,100523.81
2022-09-23T03:59:22.982Z,100522.13
2022-09-23T04:01:52.778Z,100512.53
2022-09-23T04:04:22.513Z,100509.06
2022-09-23T04:06:54.805Z,100515.38
2022-09-23T04:09:25.003Z,100508.47
2022-09-23T04:11:54.794Z,100508.66
2022-09-23T04:14:25.910Z,100507.81
2022-09-23T04:16:55.464Z,100506.19
2022-09-23T04:19:25.340Z,100509.88
2022-09-23T04:21:57.632Z,100511.81
2022-09-23T04:24:27.355Z,100505.81
2022-09-23T04:26:58.373Z,100506.03
2022-09-23T04:29:28.469Z,100496.50
2022-09-23T04:31:58.335Z,100486.13
2022-09-23T04:34:27.891Z,100492.25
2022-09-23T04:37:00.073Z,100487.81
2022-09-23T04:39:29.722Z,100479.91
2022-09-23T04:41:59.704Z,100487.81
2022-09-23T04:44:29.581Z,100475.56
2022-09-23T04:46:59.149Z,100479.03
2022-09-23T04:49:32.460Z,100481.56
2022-09-23T04:52:05.445Z,100486.84
2022-09-23T04:54:35.121Z,100481.56
2022-09-23T04:57:04.676Z,100469.31
2022-09-23T04:59:34.439Z,100471.91
2022-09-23T05:02:04.055Z,100466.63
2022-09-23T05:04:33.643Z,100457.03
2022-09-23T05:07:05.833Z,100471.00
2022-09-23T05:09:35.401Z,100471.91
2022-09-23T05:12:05.417Z,100457.81
2022-09-23T05:14:35.001Z,100467.59
2022-09-23T05:17:04.554Z,100465.00
2022-09-23T05:19:34.132Z,100468.44
2022-09-23T05:22:06.218Z,100469.25
2022-09-23T05:24:35.718Z,100471.78
2022-09-23T05:27:07.313Z,100470.91
2022-09-23T05:29:36.871Z,100467.34
2022-09-23T05:32:06.432Z,100462.88
2022-09-23T05:34:35.914Z,100461.91
2022-09-23T05:37:08.064Z,100467.09
2022-09-23T05:39:37.614Z,100462.56
2022-09-23T05:42:08.630Z,100469.47
2022-09-23T05:44:39.176Z,100472.81
2022-09-23T05:47:09.221Z,100467.38
2022-09-23T05:49:58.469Z,100470.72
2022-09-23T05:52:31.149Z,100474.91
2022-09-23T05:55:00.636Z,100478.19
2022-09-23T05:57:30.256Z,100478.03
2022-09-23T05:59:59.795Z,100480.41
2022-09-23T06:02:29.405Z,100474.78
2022-09-23T06:04:59.015Z,100478.84
2022-09-23T06:07:32.664Z,100480.34
2022-09-23T06:10:02.415Z,100480.97
2022-09-23T06:12:31.955Z,100477.25
2022-09-23T06:15:01.525Z,100479.66
2022-09-23T06:17:31.217Z,100474.19
2022-09-23T06:20:00.908Z,100474.81
2022-09-23T06:22:36.146Z,100481.59
2022-09-23T06:25:06.876Z,100480.44
2022-09-23T06:27:36.487Z,100481.00
2022-09-23T06:30:06.716Z,100483.31
2022-09-23T06:32:36.361Z,100478.56
2022-09-23T06:35:06.380Z,100472.78
2022-09-23T06:37:39.238Z,100478.22
2022-09-23T06:40:09.909Z,100472.03
2022-09-23T06:42:39.521Z,100471.94
2022-09-23T06:45:13.100Z,100464.56
2022-09-23T06:47:42.696Z,100459.66
2022-09-23T06:50:13.977Z,100461.50
2022-09-23T06:52:54.868Z,100458.53
2022-09-23T06:55:28.031Z,100464.13
2022-09-23T06:57:58.008Z,100469.25
2022-09-23T07:00:28.575Z,100464.56
2022-09-23T07:02:58.225Z,100469.25
2022-09-23T07:05:27.844Z,100463.22
2022-09-23T07:08:00.306Z,100465.78
2022-09-23T07:10:30.928Z,100468.56
2022-09-23T07:13:04.095Z,100466.78
2022-09-23T07:15:34.098Z,100457.16
2022-09-23T07:18:03.666Z,100465.59
2022-09-23T07:20:33.176Z,100469.56
2022-09-23T07:23:05.762Z,100473.63
2022-09-23T07:25:35.247Z,100471.94
2022-09-23T07:28:05.438Z,100472.56
2022-09-23T07:30:35.106Z,100472.06
2022-09-23T07:33:13.402Z,100470.47
2022-09-23T07:35:50.512Z,100468.00
2022-09-23T07:38:30.377Z,100470.28
2022-09-23T07:41:04.762Z,100477.47
2022-09-23T07:43:34.631Z,100481.50
2022-09-23T07:46:08.331Z,100481.59
2022-09-23T07:48:38.707Z,100478.84
2022-09-23T07:51:12.135Z,100477.97
2022-09-23T07:53:44.259Z,100487.38
2022-09-23T07:56:13.964Z,100481.53
2022-09-23T07:58:43.496Z,100480.44
2022-09-23T08:01:14.122Z,100481.19
2022-09-23T08:03:43.904Z,100484.03
2022-09-23T08:06:15.414Z,100480.94
2022-09-23T08:08:52.539Z,100482.22
2022-09-23T08:11:23.785Z,100494.81
2022-09-23T08:13:53.310Z,100488.97
2022-09-23T08:16:23.323Z,100488.19
2022-09-23T08:18:52.928Z,100492.00
2022-09-23T08:21:23.075Z,100489.34
2022-09-23T08:23:55.170Z,100493.09
2022-09-23T08:26:24.716Z,100479.38
2022-09-23T08:28:56.514Z,100484.47
2022-09-23T08:31:26.417Z,100480.59
2022-09-23T08:34:00.321Z,100481.44
2022-09-23T08:36:30.202Z,100473.19
2022-09-23T08:39:02.475Z,100471.16
2022-09-23T08:41:40.679Z,100469.44
2022-09-23T08:44:17.283Z,100467.50
2022-09-23T08:46:50.144Z,100460.59
2022-09-23T08:49:26.743Z,100458.84
2022-09-23T08:51:58.267Z,100453.13
2022-09-23T08:54:31.343Z,100457.63
2022-09-23T08:57:02.795Z,100459.34
2022-09-23T08:59:38.011Z,100449.81
2022-09-23T09:02:12.016Z,100456.00
2022-09-23T09:04:44.422Z,100461.44
2022-09-23T09:07:35.663Z,100458.22
2022-09-23T09:10:13.904Z,100459.50
2022-09-23T09:12:46.357Z,100458.06
2022-09-23T09:15:18.376Z,100455.78
2022-09-23T09:17:56.814Z,100458.31
2022-09-23T09:20:27.490Z,100459.88
2022-09-23T09:22:59.863Z,100451.25
2022-09-23T09:25:45.111Z,100457.63
2022-09-23T09:28:18.992Z,100455.66
2022-09-23T09:30:51.745Z,100461.91
2022-09-23T09:33:24.757Z,100464.78
2022-09-23T09:36:22.113Z,100462.72
2022-09-23T09:38:51.761Z,100458.66
2022-09-23T09:41:24.660Z,100457.63
2022-09-23T09:43:59.358Z,100452.56
2022-09-23T09:46:52.067Z,100443.53
2022-09-23T09:49:28.555Z,100441.94
2022-09-23T09:52:28.801Z,100438.91
2022-09-23T09:55:01.254Z,100433.53
2022-09-23T09:57:35.953Z,100433.16
2022-09-23T10:00:22.247Z,100428.25
2022-09-23T10:02:55.563Z,100431.22
2022-09-23T10:05:28.542Z,100435.56
2022-09-23T10:08:19.305Z,100444.31
2022-09-23T10:10:54.881Z,100434.53
2022-09-23T10:13:27.303Z,100431.41
2022-09-23T10:15:57.715Z,100430.94
2022-09-23T10:18:32.009Z,100436.19
2022-09-23T10:21:14.448Z,100434.88
2022-09-23T10:23:47.895Z,100431.44
2022-09-23T10:26:18.461Z,100424.38
2022-09-23T10:28:51.442Z,100429.75
2022-09-23T10:31:27.007Z,100424.75
2022-09-23T10:33:59.762Z,100421.72
2022-09-23T10:36:30.013Z,100420.03
2022-09-23T10:39:16.709Z,100424.28
2022-09-23T10:42:04.351Z,100429.63
2022-09-23T10:45:06.791Z,100426.47
2022-09-23T10:47:42.695Z,100422.84
2022-09-23T10:50:25.019Z,100414.31
2022-09-23T10:53:06.366Z,100413.31
2022-09-23T10:55:56.315Z,100411.47
2022-09-23T10:58:37.991Z,100407.81
2022-09-23T11:01:17.600Z,100407.31
2022-09-23T11:04:22.183Z,100403.53
2022-09-23T11:07:07.409Z,100398.59
2022-09-23T11:09:43.914Z,100400.03
2022-09-23T11:12:23.656Z,100403.16
2022-09-23T11:15:06.490Z,100402.47
2022-09-23T11:18:09.750Z,100394.16
2022-09-23T11:20:46.531Z,100395.66
2022-09-23T11:23:43.759Z,100387.13
2022-09-23T11:26:22.482Z,100386.75
2022-09-23T11:29:09.169Z,100387.28
2022-09-23T11:31:43.161Z,100385.97
2022-09-23T11:34:34.220Z,100386.69
2022-09-23T11:37:06.881Z,100385.13
2022-09-23T11:39:39.411Z,100379.41
2022-09-23T11:42:12.396Z,100382.34
2022-09-23T11:44:47.472Z,100372.69
2022-09-23T11:47:21.801Z,100373.66
2022-09-23T11:49:54.598Z,100377.06
2022-09-23T11:52:27.378Z,100369.38
2022-09-23T11:55:00.152Z,100364.25
2022-09-23T11:57:46.469Z,100365.47
2022-09-23T12:00:22.605Z,100370.44
2022-09-23T12:03:06.575Z,100358.34
2022-09-23T12:05:37.290Z,100359.59
2022-09-23T12:08:13.516Z,100359.22
2022-09-23T12:10:48.667Z,100358.88
2022-09-23T12:13:21.835Z,100366.16
2022-09-23T12:16:05.200Z,100361.59
2022-09-23T12:18:55.766Z,100355.84
2022-09-23T12:21:51.303Z,100353.91
2022-09-23T12:24:46.870Z,100348.72
2022-09-23T12:27:25.735Z,100355.09
2022-09-23T12:29:59.892Z,100336.59
2022-09-23T12:32:32.024Z,100344.28
2022-09-23T12:35:02.808Z,100340.06
2022-09-23T12:37:36.702Z,100339.81
2022-09-23T12:40:09.321Z,100340.41
2022-09-23T12:42:44.178Z,100335.88
2022-09-23T12:45:37.343Z,100330.41
2022-09-23T12:48:29.890Z,100330.59
2022-09-23T12:51:01.596Z,100334.03
2022-09-23T12:53:59.689Z,100334.22
2022-09-23T12:56:31.714Z,100327.72
2022-09-23T12:59:25.180Z,100333.56
2022-09-23T13:01:55.270Z,100331.84
2022-09-23T13:04:49.335Z,100327.59
2022-09-23T13:07:19.969Z,100315.41
2022-09-23T13:09:52.005Z,100322.03
2022-09-23T13:12:24.740Z,100317.63
2022-09-23T13:14:56.265Z,100322.31
2022-09-23T13:17:28.840Z,100319.00
2022-09-23T13:20:06.083Z,100313.06
2022-09-23T13:23:06.520Z,100309.91
2022-09-23T13:25:41.992Z,100310.97
2022-09-23T13:28:21.672Z,100313.47
2022-09-23T13:30:52.855Z,100315.06
2022-09-23T13:33:30.148Z,100308.78
2022-09-23T13:36:06.779Z,100309.25
2022-09-23T13:38:36.417Z,100306.44
2022-09-23T13:41:10.073Z,100306.94
2022-09-23T13:43:41.654Z,100304.59
2022-09-23T13:46:13.345Z,100309.25
2022-09-23T13:48:43.874Z,100306.94
2022-09-23T13:51:23.360Z,100306.72
2022-09-23T13:53:57.528Z,100315.53
2022-09-23T13:56:29.051Z,100311.66
2022-09-23T13:59:18.973Z,100308.63
2022-09-23T14:01:48.696Z,100303.91
2022-09-23T14:04:26.439Z,100302.69
2022-09-23T14:06:58.738Z,100291.03
2022-09-23T14:09:30.964Z,100293.22
2022-09-23T14:12:02.622Z,100285.44
2022-09-23T14:14:33.010Z,100283.97
2022-09-23T14:17:02.619Z,100283.09
2022-09-23T14:19:32.393Z,100278.75
2022-09-23T14:22:07.140Z,100275.19
2022-09-23T14:24:39.427Z,100278.00
2022-09-23T14:27:16.287Z,100280.06
2022-09-23T14:29:48.198Z,100266.91
2022-09-23T14:32:21.135Z,100271.56
2022-09-23T14:34:53.335Z,100271.69
2022-09-23T14:37:44.044Z,100267.53
2022-09-23T14:40:17.762Z,100265.97
2022-09-23T14:42:49.184Z,100265.34
2022-09-23T14:45:22.115Z,100259.47
2022-09-23T14:47:53.678Z,100259.97
2022-09-23T14:50:40.593Z,100263.88
2022-09-23T14:53:37.779Z,100261.41
2022-09-23T14:56:18.595Z,100255.72
2022-09-23T14:58:52.895Z,100255.50
2022-09-23T15:01:41.337Z,100253.53
2022-09-23T15:04:31.163Z,100251.56
2022-09-23T15:07:03.844Z,100244.13
2022-09-23T15:09:39.776Z,100250.69
2022-09-23T15:12:10.762Z,100246.81
2022-09-23T15:14:43.452Z,100248.13
2022-09-23T15:17:27.931Z,100244.25
2022-09-23T15:20:00.384Z,100242.88
2022-09-23T15:22:30.106Z,100240.56
2022-09-23T15:25:19.465Z,100238.22
2022-09-23T15:28:00.330Z,100230.50
2022-09-23T15:30:30.528Z,100233.56
2022-09-23T15:33:00.479Z,100235.84
2022-09-23T15:35:32.035Z,100249.69
2022-09-23T15:38:03.267Z,100241.41
2022-09-23T15:40:37.417Z,100238.34
2022-09-23T15:43:20.575Z,100236.13
2022-09-23T15:45:53.317Z,100239.16
2022-09-23T15:48:25.276Z,100239.38
2022-09-23T15:50:55.534Z,100242.28
2022-09-23T15:53:27.097Z,100237.28
2022-09-23T15:55:59.246Z,100232.16
2022-09-23T15:58:29.302Z,100230.66
2022-09-23T16:00:59.852Z,100231.78
2022-09-23T16:03:30.957Z,100231.97
2022-09-23T16:06:04.170Z,100234.91
2022-09-23T16:08:33.719Z,100234.38
2022-09-23T16:11:06.228Z,100241.88
2022-09-23T16:13:35.796Z,100239.56
2022-09-23T16:16:07.926Z,100238.19
2022-09-23T16:18:38.212Z,100246.44
2022-09-23T16:21:09.462Z,100244.06
2022-09-23T16:23:40.268Z,100247.91
2022-09-23T16:26:17.138Z,100242.81
2022-09-23T16:28:47.461Z,100235.97
2022-09-23T16:31:17.271Z,100236.19
2022-09-23T16:33:47.425Z,100233.84
2022-09-23T16:36:21.045Z,100232.47
2022-09-23T16:38:50.783Z,100235.47
2022-09-23T16:41:23.317Z,100241.16
2022-09-23T16:43:53.536Z,100242.44
2022-09-23T16:46:23.906Z,100248.97
2022-09-23T16:48:56.195Z,100244.19
2022-09-23T16:51:27.101Z,100233.06
2022-09-23T16:53:57.925Z,100233.59
2022-09-23T16:56:32.047Z,100241.19
2022-09-23T16:59:01.685Z,100239.91
2022-09-23T17:01:44.491Z,100237.66
2022-09-23T17:04:14.864Z,100242.69
2022-09-23T17:06:46.363Z,100236.91
2022-09-23T17:09:15.922Z,100238.19
2022-09-23T17:11:48.910Z,100234.09
2022-09-23T17:14:18.631Z,100233.66
2022-09-23T17:16:48.252Z,100235.88
2022-09-23T17:19:17.841Z,100238.03
2022-09-23T17:21:47.374Z,100234.69
2022-09-23T17:24:16.963Z,100230.41
2022-09-23T17:26:52.839Z,100233.41
2022-09-23T17:29:22.905Z,100225.69
2022-09-23T17:31:52.876Z,100222.47
2022-09-23T17:34:24.042Z,100224.50
2022-09-23T17:36:53.575Z,100220.53
2022-09-23T17:39:23.119Z,100225.31
2022-09-23T17:41:56.081Z,100223.03
2022-09-23T17:44:25.932Z,100216.41
2022-09-23T17:46:55.490Z,100214.34
2022-09-23T17:49:25.067Z,100215.81
2022-09-23T17:51:55.797Z,100209.22
2022-09-23T17:54:25.427Z,100210.69
2022-09-23T17:56:57.551Z,100212.13
2022-09-23T17:59:27.272Z,100202.88
2022-09-23T18:01:57.126Z,100208.63
2022-09-23T18:04:26.755Z,100202.81
2022-09-23T18:06:56.272Z,100203.28
2022-09-23T18:09:25.982Z,100202.72
2022-09-23T18:11:58.219Z,100206.72
2022-09-23T18:14:29.397Z,100210.63
2022-09-23T18:16:58.945Z,100203.00
2022-09-23T18:19:28.494Z,100210.34
2022-09-23T18:22:01.495Z,100207.94
2022-09-23T18:24:33.572Z,100205.69
2022-09-23T18:27:06.552Z,100203.38
2022-09-23T18:29:36.462Z,100213.44
2022-09-23T18:32:06.133Z,100215.53
2022-09-23T18:34:35.720Z,100214.03
2022-09-23T18:37:15.093Z,100208.84
2022-09-23T18:39:45.624Z,100220.63
2022-09-23T18:42:17.973Z,100226.06
2022-09-23T18:44:49.887Z,100216.44
2022-09-23T18:47:40.096Z,100212.19
2022-09-23T18:50:24.764Z,100213.38
2022-09-23T18:52:54.344Z,100217.16
2022-09-23T18:55:23.886Z,100215.63
2022-09-23T18:57:56.648Z,100222.00
2022-09-23T19:00:26.212Z,100216.03
2022-09-23T19:02:55.782Z,100221.44
2022-09-23T19:05:25.305Z,100225.09
2022-09-23T19:07:54.834Z,100216.31
2022-09-23T19:10:24.434Z,100223.56
2022-09-23T19:12:56.562Z,100223.66
2022-09-23T19:15:26.078Z,100221.16
2022-09-23T19:17:55.660Z,100219.56
2022-09-23T19:20:25.216Z,100219.78
2022-09-23T19:22:54.798Z,100220.81
2022-09-23T19:25:24.350Z,100221.00
2022-09-23T19:27:56.907Z,100223.84
2022-09-23T19:30:26.457Z,100224.97
2022-09-23T19:32:56.119Z,100237.47
2022-09-23T19:35:25.779Z,100232.34
2022-09-23T19:37:55.506Z,100224.56
2022-09-23T19:40:25.249Z,100225.50
2022-09-23T19:42:57.519Z,100221.19
2022-09-23T19:45:27.617Z,100218.63
2022-09-23T19:47:58.306Z,100216.91
2022-09-23T19:50:27.879Z,100216.91
2022-09-23T19:53:00.207Z,100214.25
2022-09-23T19:55:31.217Z,100218.63
2022-09-23T19:58:03.404Z,100210.56
2022-09-23T20:00:33.188Z,100203.44
2022-09-23T20:03:02.828Z,100204.31
2022-09-23T20:05:32.373Z,100205.94
2022-09-23T20:08:02.119Z,100199.75
2022-09-23T20:10:31.675Z,100197.97
2022-09-23T20:13:03.820Z,100198.06
2022-09-23T20:15:33.336Z,100196.25
2022-09-23T20:18:02.883Z,100196.25
2022-09-23T20:20:32.471Z,100186.56
2022-09-23T20:23:02.011Z,100194.53
2022-09-23T20:25:51.639Z,100192.81
2022-09-23T20:28:21.308Z,100184.81
2022-09-23T20:30:51.023Z,100197.19
2022-09-23T20:33:22.347Z,100186.56
2022-09-23T20:35:53.622Z,100187.34
2022-09-23T20:38:23.146Z,100183.81
2022-09-23T20:40:57.394Z,100188.19
2022-09-23T20:43:32.684Z,100186.38
2022-09-23T20:46:02.239Z,100189.13
2022-09-23T20:48:32.681Z,100181.22
2022-09-23T20:51:05.907Z,100179.50
2022-09-23T20:53:35.687Z,100184.06
2022-09-23T20:56:05.943Z,100179.88
2022-09-23T20:58:39.085Z,100179.97
2022-09-23T21:01:10.743Z,100180.81
2022-09-23T21:03:41.969Z,100183.47
2022-09-23T21:06:12.560Z,100179.88
2022-09-23T21:08:42.607Z,100185.19
2022-09-23T21:11:13.631Z,100180.63
2022-09-23T21:13:48.373Z,100170.78
2022-09-23T21:16:19.316Z,100181.31
2022-09-23T21:18:48.938Z,100175.91
2022-09-23T21:21:19.589Z,100177.63
2022-09-23T21:23:49.620Z,100170.59
2022-09-23T21:26:21.535Z,100174.19
2022-09-23T21:28:55.136Z,100179.50
2022-09-23T21:31:26.206Z,100171.63
2022-09-23T21:33:56.541Z,100176.09
2022-09-23T21:36:27.343Z,100164.69
2022-09-23T21:38:58.219Z,100172.66
2022-09-23T21:41:28.002Z,100169.25
2022-09-23T21:44:00.736Z,100164.88
2022-09-23T21:46:30.815Z,100169.44
2022-09-23T21:49:02.288Z,100162.56
2022-09-23T21:51:34.252Z,100163.59
2022-09-23T21:54:03.959Z,100163.94
2022-09-23T21:56:36.360Z,100164.31
2022-09-23T21:59:09.381Z,100167.19
2022-09-23T22:01:40.145Z,100170.13
2022-09-23T22:04:13.702Z,100174.59
2022-09-23T22:06:43.449Z,100174.75
2022-09-23T22:09:16.274Z,100169.59
2022-09-23T22:11:58.328Z,100175.09
2022-09-23T22:14:30.737Z,100175.25
2022-09-23T22:17:02.331Z,100171.84
2022-09-23T22:19:35.361Z,100174.59
2022-09-23T22:22:13.339Z,100173.72
2022-09-23T22:24:42.964Z,100164.81
2022-09-23T22:27:13.544Z,100171.84
2022-09-23T22:29:58.111Z,100178.88
2022-09-23T22:32:40.124Z,100169.19
2022-09-23T22:35:10.365Z,100171.84
2022-09-23T22:37:40.319Z,100174.41
2022-09-23T22:40:13.270Z,100167.28
2022-09-23T22:42:43.628Z,100167.28
2022-09-23T22:45:16.127Z,100174.22
2022-09-23T22:47:46.765Z,100171.47
2022-09-23T22:50:16.890Z,100161.72
2022-09-23T22:52:46.719Z,100157.25
2022-09-23T22:55:16.269Z,100155.41
2022-09-23T22:57:45.776Z,100154.50
2022-09-23T23:00:18.284Z,100161.56
2022-09-23T23:02:47.828Z,100157.09
2022-09-23T23:05:17.378Z,100151.78
2022-09-23T23:07:46.883Z,100149.13
2022-09-23T23:10:16.944Z,100156.16
2022-09-23T23:12:46.956Z,100155.22
2022-09-23T23:15:19.250Z,100152.38
2022-09-23T23:17:49.183Z,100149.63
2022-09-23T23:20:20.097Z,100146.81
2022-09-23T23:22:49.619Z,100142.25
2022-09-23T23:25:19.300Z,100137.72
2022-09-23T23:27:48.826Z,100155.47
2022-09-23T23:30:21.428Z,100155.53
2022-09-23T23:32:50.955Z,100149.38
2022-09-23T23:35:20.462Z,100146.81
2022-09-23T23:37:50.007Z,100140.63
2022-09-23T23:40:22.648Z,100146.03
2022-09-23T23:42:52.327Z,100139.00
2022-09-23T23:45:24.424Z,100145.28
2022-09-23T23:47:53.936Z,100143.75
2022-09-23T23:50:23.530Z,100149.13
2022-09-23T23:52:53.052Z,100145.78
2022-09-23T23:55:22.630Z,100144.16
2022-09-23T23:57:54.122Z,100134.66
